In Rescue
 
Open Full Screen Window  High Contrast Mode
Wind Gusting 00 knots
09
May 20, 2019 3:40 PM EDT
Weather Information
Wind Direction
  300 °
Wind Speed
  09 kt (10 mph)
Wind Gust
  00 kt (0 mph)
Altimeter
30.03 in
Visibility
10 SM
Temperature
11° C
52° F
Dewpoint
05° C
41° F
Humidity
67%
Sky Condition
Overcast @ 2,700 ft
MVFR

METAR KAMN 201940Z AUTO 30009KT 10SM OVC027 11/05 A3003 RMK AO2 T01130049

FAA Disclaimer: The data displayed is for advisory purposes only and is not to be used for flight planning or operations.